SHT8Q EGLL-EGPH
Flight info
| Callsign | SHT8Q |
|---|---|
| Flight time | 0h 57m |
| Altitude | 32000 |
| Route | ULTIB1J ULTIB T420 TNT UN57 POL UN601 RIBEL DCT INPIP INPIP1E |
| Aircraft | A320/M-SDE3FGHIKRWXY/S |
Departure
| Time | 2026-05-05 15:37 |
|---|---|
| Airport | London Heathrow Airport (EGLL) |
Arrival
| Time | 2026-05-05 16:35 |
|---|---|
| Airport | Edinburgh Airport (EGPH) |
| Time | Latitude | Longitude | Altitude | Speed | Heading |
|---|---|---|---|---|---|
| 2026-05-05 14:42 | 51.47400 | -0.48757 | 86 ft | 0 kts | 180° |
| 2026-05-05 15:26 | 51.47410 | -0.48757 | 90 ft | 4 kts | 180° |
| 2026-05-05 15:26 | 51.47437 | -0.48758 | 86 ft | 4 kts | 180° |
| 2026-05-05 15:26 | 51.47459 | -0.48758 | 86 ft | 4 kts | 175° |
| 2026-05-05 15:27 | 51.47481 | -0.48769 | 86 ft | 4 kts | 122° |
| 2026-05-05 15:27 | 51.47486 | -0.48805 | 87 ft | 4 kts | 90° |
| 2026-05-05 15:27 | 51.47486 | -0.48821 | 87 ft | 0 kts | 90° |
| 2026-05-05 15:30 | 51.47486 | -0.48813 | 88 ft | 1 kts | 90° |
| 2026-05-05 15:31 | 51.47486 | -0.48787 | 87 ft | 3 kts | 90° |
| 2026-05-05 15:31 | 51.47487 | -0.48737 | 102 ft | 6 kts | 90° |
| 2026-05-05 15:31 | 51.47487 | -0.48664 | 88 ft | 8 kts | 90° |
| 2026-05-05 15:31 | 51.47487 | -0.48571 | 87 ft | 9 kts | 89° |
| 2026-05-05 15:32 | 51.47467 | -0.48487 | 89 ft | 9 kts | 146° |
| 2026-05-05 15:32 | 51.47398 | -0.48474 | 86 ft | 11 kts | 178° |
| 2026-05-05 15:32 | 51.47316 | -0.48472 | 88 ft | 12 kts | 181° |
| 2026-05-05 15:32 | 51.47222 | -0.48474 | 86 ft | 14 kts | 181° |
| 2026-05-05 15:33 | 51.47134 | -0.48474 | 86 ft | 8 kts | 179° |
| 2026-05-05 15:33 | 51.47072 | -0.48471 | 86 ft | 10 kts | 178° |
| 2026-05-05 15:33 | 51.46996 | -0.48467 | 88 ft | 12 kts | 178° |
| 2026-05-05 15:33 | 51.46926 | -0.48467 | 86 ft | 10 kts | 180° |
| 2026-05-05 15:34 | 51.46863 | -0.48468 | 86 ft | 10 kts | 181° |
| 2026-05-05 15:34 | 51.46789 | -0.48470 | 86 ft | 12 kts | 181° |
| 2026-05-05 15:34 | 51.46710 | -0.48471 | 86 ft | 12 kts | 180° |
| 2026-05-05 15:34 | 51.46622 | -0.48471 | 86 ft | 14 kts | 180° |
| 2026-05-05 15:35 | 51.46553 | -0.48469 | 86 ft | 10 kts | 179° |
| 2026-05-05 15:35 | 51.46485 | -0.48441 | 88 ft | 11 kts | 126° |
| 2026-05-05 15:35 | 51.46478 | -0.48387 | 87 ft | 0 kts | 92° |
| 2026-05-05 15:36 | 51.46475 | -0.48176 | 88 ft | 53 kts | 90° |
| 2026-05-05 15:36 | 51.46483 | -0.47225 | 90 ft | 115 kts | 90° |
| 2026-05-05 15:36 | 51.46488 | -0.45679 | 86 ft | 161 kts | 90° |
| 2026-05-05 15:37 | 51.46468 | -0.43720 | 356 ft | 181 kts | 88° |
| 2026-05-05 15:37 | 51.46468 | -0.41684 | 1044 ft | 183 kts | 81° |
| 2026-05-05 15:37 | 51.46971 | -0.39861 | 1663 ft | 187 kts | 49° |
| 2026-05-05 15:37 | 51.47893 | -0.38195 | 1950 ft | 212 kts | 46° |
| 2026-05-05 15:38 | 51.48975 | -0.36318 | 2376 ft | 236 kts | 47° |
| 2026-05-05 15:38 | 51.50103 | -0.34326 | 3076 ft | 247 kts | 47° |
| 2026-05-05 15:38 | 51.51242 | -0.32260 | 3962 ft | 252 kts | 48° |
| 2026-05-05 15:38 | 51.52273 | -0.29963 | 4861 ft | 257 kts | 64° |
| 2026-05-05 15:39 | 51.52919 | -0.27201 | 5651 ft | 264 kts | 69° |
| 2026-05-05 15:39 | 51.53522 | -0.24405 | 5906 ft | 267 kts | 70° |
| 2026-05-05 15:39 | 51.54123 | -0.21584 | 5974 ft | 266 kts | 67° |
| 2026-05-05 15:39 | 51.55174 | -0.19220 | 5981 ft | 262 kts | 34° |
| 2026-05-05 15:40 | 51.56844 | -0.18288 | 5978 ft | 263 kts | 0° |
| 2026-05-05 15:40 | 51.58598 | -0.19120 | 6051 ft | 265 kts | 329° |
| 2026-05-05 15:40 | 51.60081 | -0.20904 | 6056 ft | 267 kts | 321° |
| 2026-05-05 15:40 | 51.61462 | -0.22901 | 6062 ft | 267 kts | 321° |
| 2026-05-05 15:41 | 51.62924 | -0.24730 | 6063 ft | 266 kts | 326° |
| 2026-05-05 15:41 | 51.64457 | -0.26394 | 6064 ft | 266 kts | 329° |
| 2026-05-05 15:41 | 51.66028 | -0.27972 | 6062 ft | 266 kts | 329° |
| 2026-05-05 15:41 | 51.67621 | -0.29511 | 6112 ft | 270 kts | 330° |
| 2026-05-05 15:42 | 51.69238 | -0.31050 | 6973 ft | 270 kts | 330° |
| 2026-05-05 15:42 | 51.70864 | -0.32596 | 7837 ft | 273 kts | 330° |
| 2026-05-05 15:42 | 51.72505 | -0.34163 | 8707 ft | 275 kts | 330° |
| 2026-05-05 15:42 | 51.74166 | -0.35756 | 9533 ft | 280 kts | 329° |
| 2026-05-05 15:43 | 51.75854 | -0.37384 | 10267 ft | 287 kts | 329° |
| 2026-05-05 15:43 | 51.77641 | -0.39108 | 10485 ft | 311 kts | 329° |
| 2026-05-05 15:43 | 51.79564 | -0.40970 | 10688 ft | 330 kts | 329° |
| 2026-05-05 15:43 | 51.81552 | -0.42902 | 11284 ft | 337 kts | 329° |
| 2026-05-05 15:44 | 51.83576 | -0.44867 | 11964 ft | 341 kts | 328° |
| 2026-05-05 15:44 | 51.85626 | -0.46857 | 12641 ft | 345 kts | 328° |
| 2026-05-05 15:44 | 51.87696 | -0.48864 | 13301 ft | 350 kts | 328° |
| 2026-05-05 15:44 | 51.89797 | -0.50903 | 13948 ft | 354 kts | 328° |
| 2026-05-05 15:45 | 51.91901 | -0.52948 | 14547 ft | 358 kts | 328° |
| 2026-05-05 15:45 | 51.94046 | -0.55038 | 15120 ft | 361 kts | 328° |
| 2026-05-05 15:45 | 51.95503 | -0.56464 | 15536 ft | 364 kts | 328° |
| 2026-05-05 15:45 | 51.97679 | -0.58598 | 16122 ft | 367 kts | 328° |
| 2026-05-05 15:46 | 51.99871 | -0.60743 | 16706 ft | 371 kts | 328° |
| 2026-05-05 15:46 | 52.02089 | -0.62915 | 17294 ft | 374 kts | 328° |
| 2026-05-05 15:46 | 52.04329 | -0.65110 | 17896 ft | 378 kts | 328° |
| 2026-05-05 15:46 | 52.06591 | -0.67330 | 18486 ft | 381 kts | 328° |
| 2026-05-05 15:47 | 52.08870 | -0.69571 | 19043 ft | 384 kts | 327° |
| 2026-05-05 15:47 | 52.11162 | -0.71829 | 19625 ft | 387 kts | 327° |
| 2026-05-05 15:47 | 52.13466 | -0.74103 | 20213 ft | 389 kts | 327° |
| 2026-05-05 15:47 | 52.15791 | -0.76398 | 20777 ft | 392 kts | 327° |
| 2026-05-05 15:48 | 52.18134 | -0.78707 | 21333 ft | 395 kts | 327° |
| 2026-05-05 15:48 | 52.20490 | -0.81036 | 21874 ft | 397 kts | 327° |
| 2026-05-05 15:48 | 52.22861 | -0.83385 | 22396 ft | 400 kts | 326° |
| 2026-05-05 15:48 | 52.25250 | -0.85756 | 22907 ft | 403 kts | 326° |
| 2026-05-05 15:49 | 52.27651 | -0.88140 | 23422 ft | 405 kts | 326° |
| 2026-05-05 15:49 | 52.30044 | -0.90514 | 23844 ft | 409 kts | 326° |
| 2026-05-05 15:49 | 52.32511 | -0.92963 | 24231 ft | 412 kts | 326° |
| 2026-05-05 15:49 | 52.34971 | -0.95409 | 24621 ft | 415 kts | 326° |
| 2026-05-05 15:50 | 52.37412 | -0.97844 | 24983 ft | 418 kts | 326° |
| 2026-05-05 15:50 | 52.39938 | -1.00369 | 25392 ft | 420 kts | 326° |
| 2026-05-05 15:50 | 52.42406 | -1.02845 | 25776 ft | 423 kts | 326° |
| 2026-05-05 15:50 | 52.44921 | -1.05372 | 26159 ft | 425 kts | 326° |
| 2026-05-05 15:51 | 52.47452 | -1.07913 | 26528 ft | 428 kts | 326° |
| 2026-05-05 15:51 | 52.49998 | -1.10468 | 26893 ft | 430 kts | 326° |
| 2026-05-05 15:51 | 52.52561 | -1.13040 | 27269 ft | 433 kts | 326° |
| 2026-05-05 15:51 | 52.55136 | -1.15632 | 27611 ft | 435 kts | 326° |
| 2026-05-05 15:52 | 52.57726 | -1.18242 | 27971 ft | 438 kts | 326° |
| 2026-05-05 15:52 | 52.60332 | -1.20870 | 28318 ft | 441 kts | 326° |
| 2026-05-05 15:52 | 52.62946 | -1.23510 | 28673 ft | 443 kts | 326° |
| 2026-05-05 15:52 | 52.65578 | -1.26172 | 29009 ft | 445 kts | 326° |
| 2026-05-05 15:53 | 52.68230 | -1.28862 | 29339 ft | 448 kts | 326° |
| 2026-05-05 15:53 | 52.70891 | -1.31563 | 29673 ft | 450 kts | 326° |
| 2026-05-05 15:53 | 52.73557 | -1.34275 | 30131 ft | 450 kts | 325° |
| 2026-05-05 15:53 | 52.76212 | -1.36983 | 30562 ft | 449 kts | 326° |
| 2026-05-05 15:54 | 52.78871 | -1.39699 | 30959 ft | 448 kts | 326° |
| 2026-05-05 15:54 | 52.81515 | -1.42401 | 31377 ft | 447 kts | 326° |
| 2026-05-05 15:54 | 52.84158 | -1.45107 | 31817 ft | 446 kts | 326° |
| 2026-05-05 15:54 | 52.86795 | -1.47813 | 31965 ft | 445 kts | 327° |
| 2026-05-05 15:55 | 52.89426 | -1.50510 | 32003 ft | 443 kts | 327° |
| 2026-05-05 15:55 | 52.94648 | -1.55873 | 32000 ft | 441 kts | 327° |
| 2026-05-05 15:56 | 52.99852 | -1.61249 | 32003 ft | 440 kts | 327° |
| 2026-05-05 15:56 | 53.05071 | -1.66530 | 32005 ft | 439 kts | 332° |
| 2026-05-05 15:57 | 53.10749 | -1.70294 | 32013 ft | 440 kts | 339° |
| 2026-05-05 15:57 | 53.16446 | -1.73820 | 32005 ft | 440 kts | 339° |
| 2026-05-05 15:58 | 53.22177 | -1.77394 | 32005 ft | 440 kts | 339° |
| 2026-05-05 15:58 | 53.27911 | -1.80975 | 32008 ft | 440 kts | 338° |
| 2026-05-05 15:59 | 53.33656 | -1.84567 | 32012 ft | 441 kts | 338° |
| 2026-05-05 15:59 | 53.39406 | -1.88168 | 32024 ft | 441 kts | 338° |
| 2026-05-05 16:00 | 53.45151 | -1.91777 | 32025 ft | 441 kts | 338° |
| 2026-05-05 16:00 | 53.50897 | -1.95401 | 32023 ft | 441 kts | 338° |
| 2026-05-05 16:01 | 53.56636 | -1.99034 | 32030 ft | 441 kts | 338° |
| 2026-05-05 16:01 | 53.62375 | -2.02673 | 32033 ft | 441 kts | 338° |
| 2026-05-05 16:02 | 53.68115 | -2.06320 | 32031 ft | 441 kts | 338° |
| 2026-05-05 16:02 | 53.73852 | -2.09987 | 32042 ft | 441 kts | 337° |
| 2026-05-05 16:03 | 53.79525 | -2.13717 | 32039 ft | 440 kts | 336° |
| 2026-05-05 16:03 | 53.85191 | -2.17635 | 32038 ft | 440 kts | 335° |
| 2026-05-05 16:04 | 53.90851 | -2.21575 | 32036 ft | 440 kts | 335° |
| 2026-05-05 16:04 | 53.96521 | -2.25473 | 32038 ft | 440 kts | 336° |
| 2026-05-05 16:05 | 54.02198 | -2.29364 | 32048 ft | 440 kts | 335° |
| 2026-05-05 16:05 | 54.07876 | -2.33272 | 32045 ft | 440 kts | 335° |
| 2026-05-05 16:06 | 54.13566 | -2.37211 | 32048 ft | 440 kts | 335° |
| 2026-05-05 16:06 | 54.19234 | -2.41147 | 32042 ft | 440 kts | 335° |
| 2026-05-05 16:07 | 54.24908 | -2.45111 | 32055 ft | 440 kts | 334° |
| 2026-05-05 16:07 | 54.30565 | -2.49076 | 32043 ft | 440 kts | 334° |
| 2026-05-05 16:08 | 54.36232 | -2.53045 | 32039 ft | 440 kts | 334° |
| 2026-05-05 16:08 | 54.41898 | -2.57025 | 32031 ft | 440 kts | 334° |
| 2026-05-05 16:09 | 54.47553 | -2.61012 | 32050 ft | 440 kts | 334° |
| 2026-05-05 16:09 | 54.53217 | -2.65007 | 32056 ft | 439 kts | 333° |
| 2026-05-05 16:10 | 54.58867 | -2.69009 | 32052 ft | 439 kts | 333° |
| 2026-05-05 16:10 | 54.64527 | -2.73026 | 32029 ft | 440 kts | 333° |
| 2026-05-05 16:11 | 54.70198 | -2.77068 | 32025 ft | 442 kts | 333° |
| 2026-05-05 16:12 | 54.81567 | -2.85222 | 32049 ft | 442 kts | 333° |
| 2026-05-05 16:13 | 54.95786 | -2.95502 | 30459 ft | 453 kts | 334° |
| 2026-05-05 16:13 | 54.98690 | -2.97603 | 29403 ft | 448 kts | 334° |
| 2026-05-05 16:13 | 55.01538 | -2.99658 | 28210 ft | 439 kts | 334° |
| 2026-05-05 16:14 | 55.07044 | -3.03651 | 26009 ft | 424 kts | 334° |
| 2026-05-05 16:14 | 55.12397 | -3.07559 | 23950 ft | 411 kts | 334° |
| 2026-05-05 16:15 | 55.17590 | -3.11361 | 21783 ft | 398 kts | 334° |
| 2026-05-05 16:15 | 55.22614 | -3.15049 | 19876 ft | 385 kts | 334° |
| 2026-05-05 16:16 | 55.27288 | -3.18485 | 19391 ft | 339 kts | 334° |
| 2026-05-05 16:16 | 55.31757 | -3.20146 | 18315 ft | 330 kts | 360° |
| 2026-05-05 16:17 | 55.36285 | -3.19441 | 16868 ft | 323 kts | 1° |
| 2026-05-05 16:17 | 55.38511 | -3.19085 | 16180 ft | 319 kts | 1° |
| 2026-05-05 16:18 | 55.42882 | -3.18399 | 14872 ft | 311 kts | 1° |
| 2026-05-05 16:18 | 55.45025 | -3.18064 | 14255 ft | 308 kts | 1° |
| 2026-05-05 16:18 | 55.49249 | -3.17403 | 12975 ft | 301 kts | 1° |
| 2026-05-05 16:19 | 55.51322 | -3.17078 | 12329 ft | 297 kts | 1° |
| 2026-05-05 16:19 | 55.53370 | -3.16759 | 11679 ft | 294 kts | 1° |
| 2026-05-05 16:19 | 55.57392 | -3.16128 | 10453 ft | 287 kts | 1° |
| 2026-05-05 16:20 | 55.61323 | -3.15505 | 9221 ft | 280 kts | 1° |
| 2026-05-05 16:20 | 55.65136 | -3.14897 | 8013 ft | 273 kts | 1° |
| 2026-05-05 16:21 | 55.68502 | -3.16379 | 7176 ft | 244 kts | 317° |
| 2026-05-05 16:22 | 55.69863 | -3.24192 | 7036 ft | 233 kts | 257° |
| 2026-05-05 16:22 | 55.68891 | -3.29594 | 6787 ft | 228 kts | 255° |
| 2026-05-05 16:23 | 55.67900 | -3.34998 | 6640 ft | 230 kts | 255° |
| 2026-05-05 16:23 | 55.67404 | -3.37709 | 6505 ft | 232 kts | 253° |
| 2026-05-05 16:23 | 55.66410 | -3.43154 | 6320 ft | 231 kts | 254° |
| 2026-05-05 16:24 | 55.65918 | -3.45830 | 6218 ft | 225 kts | 253° |
| 2026-05-05 16:24 | 55.65441 | -3.48422 | 6108 ft | 219 kts | 253° |
| 2026-05-05 16:24 | 55.64493 | -3.53583 | 6001 ft | 221 kts | 253° |
| 2026-05-05 16:25 | 55.64038 | -3.56190 | 5935 ft | 220 kts | 260° |
| 2026-05-05 16:25 | 55.65010 | -3.60914 | 5758 ft | 215 kts | 324° |
| 2026-05-05 16:25 | 55.66385 | -3.61873 | 5667 ft | 215 kts | 350° |
| 2026-05-05 16:26 | 55.69092 | -3.63890 | 5472 ft | 214 kts | 318° |
| 2026-05-05 16:26 | 55.71396 | -3.67275 | 5247 ft | 215 kts | 321° |
| 2026-05-05 16:27 | 55.72563 | -3.68937 | 5134 ft | 216 kts | 321° |
| 2026-05-05 16:27 | 55.73733 | -3.70610 | 5027 ft | 216 kts | 322° |
| 2026-05-05 16:27 | 55.74899 | -3.72283 | 4908 ft | 215 kts | 323° |
| 2026-05-05 16:27 | 55.76037 | -3.74014 | 4801 ft | 216 kts | 319° |
| 2026-05-05 16:28 | 55.77099 | -3.75851 | 4681 ft | 216 kts | 317° |
| 2026-05-05 16:28 | 55.78209 | -3.77532 | 4563 ft | 203 kts | 336° |
| 2026-05-05 16:28 | 55.79520 | -3.78125 | 4496 ft | 192 kts | 3° |
| 2026-05-05 16:28 | 55.80792 | -3.77565 | 4413 ft | 189 kts | 30° |
| 2026-05-05 16:29 | 55.81762 | -3.76029 | 4328 ft | 188 kts | 56° |
| 2026-05-05 16:29 | 55.82448 | -3.74066 | 4255 ft | 186 kts | 58° |
| 2026-05-05 16:29 | 55.83118 | -3.72108 | 4146 ft | 186 kts | 59° |
| 2026-05-05 16:29 | 55.83787 | -3.70146 | 4047 ft | 186 kts | 59° |
| 2026-05-05 16:30 | 55.84459 | -3.68178 | 3914 ft | 185 kts | 59° |
| 2026-05-05 16:30 | 55.85129 | -3.66222 | 3637 ft | 185 kts | 59° |
| 2026-05-05 16:30 | 55.85570 | -3.64930 | 3462 ft | 184 kts | 59° |
| 2026-05-05 16:30 | 55.86230 | -3.63001 | 3211 ft | 183 kts | 59° |
| 2026-05-05 16:31 | 55.86886 | -3.61085 | 3049 ft | 178 kts | 60° |
| 2026-05-05 16:31 | 55.87523 | -3.59221 | 3004 ft | 175 kts | 60° |
| 2026-05-05 16:31 | 55.88159 | -3.57361 | 3001 ft | 177 kts | 60° |
| 2026-05-05 16:31 | 55.88798 | -3.55487 | 3008 ft | 177 kts | 60° |
| 2026-05-05 16:32 | 55.89436 | -3.53607 | 2908 ft | 179 kts | 60° |
| 2026-05-05 16:32 | 55.90098 | -3.51710 | 2323 ft | 179 kts | 60° |
| 2026-05-05 16:32 | 55.90752 | -3.49851 | 2162 ft | 170 kts | 63° |
| 2026-05-05 16:32 | 55.91313 | -3.48145 | 2150 ft | 149 kts | 62° |
| 2026-05-05 16:33 | 55.91852 | -3.46579 | 1744 ft | 151 kts | 60° |
| 2026-05-05 16:33 | 55.92411 | -3.45015 | 1288 ft | 145 kts | 62° |
| 2026-05-05 16:33 | 55.92923 | -3.43500 | 755 ft | 140 kts | 64° |
| 2026-05-05 16:33 | 55.93386 | -3.42057 | 638 ft | 132 kts | 62° |
| 2026-05-05 16:34 | 55.93854 | -3.40652 | 416 ft | 129 kts | 62° |
| 2026-05-05 16:34 | 55.94318 | -3.39296 | 216 ft | 128 kts | 64° |
| 2026-05-05 16:34 | 55.94774 | -3.37947 | 118 ft | 120 kts | 64° |
| 2026-05-05 16:34 | 55.95105 | -3.36923 | 114 ft | 61 kts | 58° |
| 2026-05-05 16:35 | 55.95225 | -3.36583 | 113 ft | 13 kts | 59° |
| 2026-05-05 16:35 | 55.95260 | -3.36459 | 110 ft | 12 kts | 85° |
| 2026-05-05 16:35 | 55.95232 | -3.36391 | 113 ft | 2 kts | 149° |
| 2026-05-05 16:35 | 55.95223 | -3.36382 | 114 ft | 0 kts | 150° |
| 2026-05-05 16:36 | 55.95199 | -3.36357 | 115 ft | 7 kts | 150° |
| 2026-05-05 16:37 | 55.95155 | -3.36315 | 114 ft | 8 kts | 163° |
| 2026-05-05 16:37 | 55.95105 | -3.36372 | 116 ft | 9 kts | 237° |
| 2026-05-05 16:37 | 55.95048 | -3.36391 | 114 ft | 9 kts | 166° |
| 2026-05-05 16:37 | 55.94997 | -3.36450 | 116 ft | 8 kts | 240° |
| 2026-05-05 16:38 | 55.94967 | -3.36545 | 113 ft | 9 kts | 240° |
| 2026-05-05 16:38 | 55.94934 | -3.36647 | 113 ft | 8 kts | 240° |
| 2026-05-05 16:38 | 55.94930 | -3.36659 | 114 ft | 1 kts | 240° |
| 2026-05-05 16:38 | 55.94921 | -3.36678 | 114 ft | 2 kts | 216° |
| 2026-05-05 16:39 | 55.94907 | -3.36673 | 113 ft | 2 kts | 153° |
| 2026-05-05 16:39 | 55.94896 | -3.36657 | 113 ft | 3 kts | 142° |
| 2026-05-05 16:39 | 55.94877 | -3.36631 | 116 ft | 4 kts | 144° |
| 2026-05-05 16:39 | 55.94863 | -3.36614 | 115 ft | 1 kts | 146° |
| 2026-05-05 16:40 | 55.94859 | -3.36610 | 116 ft | 0 kts | 147° |